sensor_id;sensor_type;location;lat;lon;timestamp;P1;durP1;ratioP1;P2;durP2;ratioP2
31764;SDS011;18338;53.240;8.798;2022-09-09T00:01:14;54.13;;;26.30;;
31764;SDS011;18338;53.240;8.798;2022-09-09T00:03:55;55.17;;;25.27;;
31764;SDS011;18338;53.240;8.798;2022-09-09T00:06:33;50.83;;;24.95;;
31764;SDS011;18338;53.240;8.798;2022-09-09T00:09:12;50.60;;;24.83;;
31764;SDS011;18338;53.240;8.798;2022-09-09T00:11:46;46.50;;;24.98;;
31764;SDS011;18338;53.240;8.798;2022-09-09T00:16:53;51.33;;;25.27;;
31764;SDS011;18338;53.240;8.798;2022-09-09T00:19:28;61.55;;;28.10;;
31764;SDS011;18338;53.240;8.798;2022-09-09T00:22:14;56.47;;;27.58;;
31764;SDS011;18338;53.240;8.798;2022-09-09T00:24:53;54.78;;;27.38;;
31764;SDS011;18338;53.240;8.798;2022-09-09T00:27:23;50.15;;;26.13;;
31764;SDS011;18338;53.240;8.798;2022-09-09T00:32:40;51.35;;;25.63;;
31764;SDS011;18338;53.240;8.798;2022-09-09T00:37:45;67.93;;;29.08;;
31764;SDS011;18338;53.240;8.798;2022-09-09T00:40:24;63.78;;;27.75;;
31764;SDS011;18338;53.240;8.798;2022-09-09T00:43:03;63.75;;;28.55;;
31764;SDS011;18338;53.240;8.798;2022-09-09T00:45:42;51.53;;;25.73;;
31764;SDS011;18338;53.240;8.798;2022-09-09T00:51:44;47.05;;;24.20;;
31764;SDS011;18338;53.240;8.798;2022-09-09T00:54:42;47.85;;;24.67;;
31764;SDS011;18338;53.240;8.798;2022-09-09T00:57:33;58.00;;;27.95;;
31764;SDS011;18338;53.240;8.798;2022-09-09T01:08:02;52.42;;;26.88;;
31764;SDS011;18338;53.240;8.798;2022-09-09T01:10:43;58.83;;;28.23;;
31764;SDS011;18338;53.240;8.798;2022-09-09T01:13:26;64.25;;;29.65;;
31764;SDS011;18338;53.240;8.798;2022-09-09T01:16:00;70.03;;;29.25;;
31764;SDS011;18338;53.240;8.798;2022-09-09T01:18:33;62.25;;;28.75;;
31764;SDS011;18338;53.240;8.798;2022-09-09T01:21:30;68.35;;;31.08;;
31764;SDS011;18338;53.240;8.798;2022-09-09T01:26:50;75.25;;;30.13;;
31764;SDS011;18338;53.240;8.798;2022-09-09T01:29:19;58.47;;;28.35;;
31764;SDS011;18338;53.240;8.798;2022-09-09T01:31:52;64.70;;;27.50;;
31764;SDS011;18338;53.240;8.798;2022-09-09T01:34:25;56.28;;;26.73;;
31764;SDS011;18338;53.240;8.798;2022-09-09T01:37:03;55.40;;;27.38;;
31764;SDS011;18338;53.240;8.798;2022-09-09T01:39:34;52.22;;;26.38;;
31764;SDS011;18338;53.240;8.798;2022-09-09T01:42:02;57.10;;;26.60;;
31764;SDS011;18338;53.240;8.798;2022-09-09T01:44:31;76.05;;;27.85;;
31764;SDS011;18338;53.240;8.798;2022-09-09T01:46:58;56.25;;;26.27;;
31764;SDS011;18338;53.240;8.798;2022-09-09T01:49:28;64.18;;;27.85;;
31764;SDS011;18338;53.240;8.798;2022-09-09T01:51:55;62.13;;;28.42;;
31764;SDS011;18338;53.240;8.798;2022-09-09T01:54:24;67.57;;;29.65;;
31764;SDS011;18338;53.240;8.798;2022-09-09T02:02:32;139.82;;;34.38;;
31764;SDS011;18338;53.240;8.798;2022-09-09T02:06:09;85.20;;;31.25;;
31764;SDS011;18338;53.240;8.798;2022-09-09T02:08:08;123.85;;;33.58;;
31764;SDS011;18338;53.240;8.798;2022-09-09T02:10:40;113.20;;;31.63;;
31764;SDS011;18338;53.240;8.798;2022-09-09T02:13:14;89.25;;;31.42;;
31764;SDS011;18338;53.240;8.798;2022-09-09T02:18:28;226.73;;;39.05;;
31764;SDS011;18338;53.240;8.798;2022-09-09T02:21:06;83.63;;;30.98;;
31764;SDS011;18338;53.240;8.798;2022-09-09T02:23:33;78.07;;;31.92;;
31764;SDS011;18338;53.240;8.798;2022-09-09T02:26:02;73.85;;;30.52;;
31764;SDS011;18338;53.240;8.798;2022-09-09T02:28:31;77.13;;;32.25;;
31764;SDS011;18338;53.240;8.798;2022-09-09T02:30:59;251.82;;;37.30;;
31764;SDS011;18338;53.240;8.798;2022-09-09T02:33:28;150.20;;;30.98;;
31764;SDS011;18338;53.240;8.798;2022-09-09T02:36:01;109.80;;;27.25;;
31764;SDS011;18338;53.240;8.798;2022-09-09T02:38:34;49.03;;;23.33;;
31764;SDS011;18338;53.240;8.798;2022-09-09T02:41:05;258.15;;;36.78;;
31764;SDS011;18338;53.240;8.798;2022-09-09T02:43:33;111.55;;;27.75;;
31764;SDS011;18338;53.240;8.798;2022-09-09T02:51:35;51.53;;;24.63;;
31764;SDS011;18338;53.240;8.798;2022-09-09T02:54:47;64.03;;;27.27;;
31764;SDS011;18338;53.240;8.798;2022-09-09T02:57:11;67.75;;;26.90;;
31764;SDS011;18338;53.240;8.798;2022-09-09T02:59:38;65.22;;;26.88;;
31764;SDS011;18338;53.240;8.798;2022-09-09T03:02:06;62.85;;;28.08;;
31764;SDS011;18338;53.240;8.798;2022-09-09T03:04:33;64.95;;;27.92;;
31764;SDS011;18338;53.240;8.798;2022-09-09T03:06:59;61.08;;;27.58;;
31764;SDS011;18338;53.240;8.798;2022-09-09T03:09:26;63.83;;;27.70;;
31764;SDS011;18338;53.240;8.798;2022-09-09T03:11:53;71.15;;;29.85;;
31764;SDS011;18338;53.240;8.798;2022-09-09T03:14:21;74.13;;;29.73;;
31764;SDS011;18338;53.240;8.798;2022-09-09T03:16:51;77.45;;;31.35;;
31764;SDS011;18338;53.240;8.798;2022-09-09T03:19:22;91.57;;;31.90;;
31764;SDS011;18338;53.240;8.798;2022-09-09T03:21:49;70.28;;;30.80;;
31764;SDS011;18338;53.240;8.798;2022-09-09T03:24:17;73.47;;;31.27;;
31764;SDS011;18338;53.240;8.798;2022-09-09T03:26:44;70.00;;;29.95;;
31764;SDS011;18338;53.240;8.798;2022-09-09T03:29:11;81.95;;;32.80;;
31764;SDS011;18338;53.240;8.798;2022-09-09T03:31:38;78.22;;;32.47;;
31764;SDS011;18338;53.240;8.798;2022-09-09T03:34:06;88.60;;;34.28;;
31764;SDS011;18338;53.240;8.798;2022-09-09T03:36:33;82.18;;;33.33;;
31764;SDS011;18338;53.240;8.798;2022-09-09T03:39:03;68.30;;;30.30;;
31764;SDS011;18338;53.240;8.798;2022-09-09T03:41:30;82.35;;;33.33;;
31764;SDS011;18338;53.240;8.798;2022-09-09T03:43:57;73.22;;;30.88;;
31764;SDS011;18338;53.240;8.798;2022-09-09T03:46:24;64.75;;;30.65;;
31764;SDS011;18338;53.240;8.798;2022-09-09T03:48:52;70.57;;;29.83;;
31764;SDS011;18338;53.240;8.798;2022-09-09T03:51:19;72.90;;;33.03;;
31764;SDS011;18338;53.240;8.798;2022-09-09T03:53:47;75.03;;;32.92;;
31764;SDS011;18338;53.240;8.798;2022-09-09T03:56:14;78.68;;;33.50;;
31764;SDS011;18338;53.240;8.798;2022-09-09T03:58:41;78.38;;;33.08;;
31764;SDS011;18338;53.240;8.798;2022-09-09T04:01:09;63.55;;;30.27;;
31764;SDS011;18338;53.240;8.798;2022-09-09T04:03:44;70.85;;;31.17;;
31764;SDS011;18338;53.240;8.798;2022-09-09T04:06:11;66.13;;;29.38;;
31764;SDS011;18338;53.240;8.798;2022-09-09T04:08:40;68.00;;;31.10;;
31764;SDS011;18338;53.240;8.798;2022-09-09T04:11:08;62.53;;;30.10;;
31764;SDS011;18338;53.240;8.798;2022-09-09T04:13:37;59.20;;;28.38;;
31764;SDS011;18338;53.240;8.798;2022-09-09T04:16:07;63.63;;;28.77;;
31764;SDS011;18338;53.240;8.798;2022-09-09T04:18:36;58.90;;;28.25;;
31764;SDS011;18338;53.240;8.798;2022-09-09T04:21:03;71.38;;;29.05;;
31764;SDS011;18338;53.240;8.798;2022-09-09T04:23:34;51.17;;;25.90;;
31764;SDS011;18338;53.240;8.798;2022-09-09T04:26:02;61.83;;;27.35;;
31764;SDS011;18338;53.240;8.798;2022-09-09T04:28:48;60.13;;;28.98;;
31764;SDS011;18338;53.240;8.798;2022-09-09T04:31:29;59.58;;;28.98;;
31764;SDS011;18338;53.240;8.798;2022-09-09T04:33:56;61.72;;;28.00;;
31764;SDS011;18338;53.240;8.798;2022-09-09T04:36:30;66.95;;;28.27;;
31764;SDS011;18338;53.240;8.798;2022-09-09T04:38:58;70.97;;;29.30;;
31764;SDS011;18338;53.240;8.798;2022-09-09T04:41:25;65.05;;;30.40;;
31764;SDS011;18338;53.240;8.798;2022-09-09T04:43:52;64.80;;;30.98;;
31764;SDS011;18338;53.240;8.798;2022-09-09T04:46:20;68.75;;;31.10;;
31764;SDS011;18338;53.240;8.798;2022-09-09T04:48:49;64.55;;;31.63;;
31764;SDS011;18338;53.240;8.798;2022-09-09T04:51:16;67.00;;;30.75;;
31764;SDS011;18338;53.240;8.798;2022-09-09T04:53:43;62.00;;;30.23;;
31764;SDS011;18338;53.240;8.798;2022-09-09T04:56:14;63.72;;;29.88;;
31764;SDS011;18338;53.240;8.798;2022-09-09T04:58:42;60.65;;;29.92;;
31764;SDS011;18338;53.240;8.798;2022-09-09T05:03:39;60.95;;;30.65;;
31764;SDS011;18338;53.240;8.798;2022-09-09T05:06:07;61.45;;;31.17;;
31764;SDS011;18338;53.240;8.798;2022-09-09T05:08:39;55.17;;;27.42;;
31764;SDS011;18338;53.240;8.798;2022-09-09T05:11:17;54.35;;;27.67;;
31764;SDS011;18338;53.240;8.798;2022-09-09T05:13:54;53.70;;;27.08;;
31764;SDS011;18338;53.240;8.798;2022-09-09T05:16:21;54.80;;;26.90;;
31764;SDS011;18338;53.240;8.798;2022-09-09T05:18:49;53.20;;;27.17;;
31764;SDS011;18338;53.240;8.798;2022-09-09T05:21:18;55.28;;;28.75;;
31764;SDS011;18338;53.240;8.798;2022-09-09T05:23:46;52.95;;;26.25;;
31764;SDS011;18338;53.240;8.798;2022-09-09T05:26:14;52.33;;;27.27;;
31764;SDS011;18338;53.240;8.798;2022-09-09T05:28:43;48.72;;;25.42;;
31764;SDS011;18338;53.240;8.798;2022-09-09T05:31:11;52.35;;;26.65;;
31764;SDS011;18338;53.240;8.798;2022-09-09T05:33:43;49.40;;;25.38;;
31764;SDS011;18338;53.240;8.798;2022-09-09T05:36:13;53.90;;;26.13;;
31764;SDS011;18338;53.240;8.798;2022-09-09T05:38:41;45.08;;;24.25;;
31764;SDS011;18338;53.240;8.798;2022-09-09T05:41:08;48.47;;;26.02;;
31764;SDS011;18338;53.240;8.798;2022-09-09T05:43:41;52.00;;;25.80;;
31764;SDS011;18338;53.240;8.798;2022-09-09T05:46:11;53.88;;;25.92;;
31764;SDS011;18338;53.240;8.798;2022-09-09T05:48:49;50.15;;;25.02;;
31764;SDS011;18338;53.240;8.798;2022-09-09T05:51:22;47.25;;;25.60;;
31764;SDS011;18338;53.240;8.798;2022-09-09T05:53:50;48.90;;;25.90;;
31764;SDS011;18338;53.240;8.798;2022-09-09T05:56:22;56.05;;;26.92;;
31764;SDS011;18338;53.240;8.798;2022-09-09T05:58:51;57.20;;;28.65;;
31764;SDS011;18338;53.240;8.798;2022-09-09T06:01:21;56.75;;;29.70;;
31764;SDS011;18338;53.240;8.798;2022-09-09T06:03:52;55.13;;;28.40;;
31764;SDS011;18338;53.240;8.798;2022-09-09T06:06:20;52.70;;;27.08;;
31764;SDS011;18338;53.240;8.798;2022-09-09T06:08:50;61.65;;;29.33;;
31764;SDS011;18338;53.240;8.798;2022-09-09T06:11:23;60.65;;;28.95;;
31764;SDS011;18338;53.240;8.798;2022-09-09T06:13:51;62.22;;;29.17;;
31764;SDS011;18338;53.240;8.798;2022-09-09T06:16:23;62.35;;;30.48;;
31764;SDS011;18338;53.240;8.798;2022-09-09T06:18:53;58.50;;;29.95;;
31764;SDS011;18338;53.240;8.798;2022-09-09T06:21:22;59.95;;;30.85;;
31764;SDS011;18338;53.240;8.798;2022-09-09T06:23:50;54.58;;;29.95;;
31764;SDS011;18338;53.240;8.798;2022-09-09T06:26:26;55.17;;;29.58;;
31764;SDS011;18338;53.240;8.798;2022-09-09T06:29:08;54.95;;;28.13;;
31764;SDS011;18338;53.240;8.798;2022-09-09T06:31:35;54.53;;;27.67;;
31764;SDS011;18338;53.240;8.798;2022-09-09T06:34:07;54.40;;;28.00;;
31764;SDS011;18338;53.240;8.798;2022-09-09T06:36:43;57.00;;;27.73;;
31764;SDS011;18338;53.240;8.798;2022-09-09T06:39:22;57.17;;;28.40;;
31764;SDS011;18338;53.240;8.798;2022-09-09T06:41:48;57.70;;;28.50;;
31764;SDS011;18338;53.240;8.798;2022-09-09T06:44:16;58.38;;;29.05;;
31764;SDS011;18338;53.240;8.798;2022-09-09T06:46:42;55.30;;;29.10;;
31764;SDS011;18338;53.240;8.798;2022-09-09T06:49:10;55.45;;;30.38;;
31764;SDS011;18338;53.240;8.798;2022-09-09T06:51:37;57.50;;;30.50;;
31764;SDS011;18338;53.240;8.798;2022-09-09T06:54:10;56.45;;;31.65;;
31764;SDS011;18338;53.240;8.798;2022-09-09T06:56:39;56.08;;;29.85;;
31764;SDS011;18338;53.240;8.798;2022-09-09T07:02:20;56.35;;;30.20;;
31764;SDS011;18338;53.240;8.798;2022-09-09T07:04:48;58.20;;;30.50;;
31764;SDS011;18338;53.240;8.798;2022-09-09T07:07:17;55.97;;;30.85;;
31764;SDS011;18338;53.240;8.798;2022-09-09T07:09:44;56.65;;;32.13;;
31764;SDS011;18338;53.240;8.798;2022-09-09T07:12:12;54.92;;;31.80;;
31764;SDS011;18338;53.240;8.798;2022-09-09T07:14:41;57.65;;;32.22;;
31764;SDS011;18338;53.240;8.798;2022-09-09T07:27:55;55.60;;;32.10;;
31764;SDS011;18338;53.240;8.798;2022-09-09T07:30:22;54.25;;;32.47;;
31764;SDS011;18338;53.240;8.798;2022-09-09T07:32:53;51.85;;;32.17;;
31764;SDS011;18338;53.240;8.798;2022-09-09T07:35:19;57.55;;;31.83;;
31764;SDS011;18338;53.240;8.798;2022-09-09T07:37:46;50.55;;;30.25;;
31764;SDS011;18338;53.240;8.798;2022-09-09T07:40:16;49.28;;;30.75;;
31764;SDS011;18338;53.240;8.798;2022-09-09T07:42:43;51.33;;;30.05;;
31764;SDS011;18338;53.240;8.798;2022-09-09T07:45:09;41.20;;;26.80;;
31764;SDS011;18338;53.240;8.798;2022-09-09T07:47:36;44.70;;;27.50;;
31764;SDS011;18338;53.240;8.798;2022-09-09T07:50:03;43.55;;;27.40;;
31764;SDS011;18338;53.240;8.798;2022-09-09T07:52:30;40.42;;;24.23;;
31764;SDS011;18338;53.240;8.798;2022-09-09T07:54:57;36.03;;;23.35;;
31764;SDS011;18338;53.240;8.798;2022-09-09T07:57:23;32.03;;;20.05;;
31764;SDS011;18338;53.240;8.798;2022-09-09T07:59:50;26.88;;;18.13;;
31764;SDS011;18338;53.240;8.798;2022-09-09T08:02:27;33.47;;;17.52;;
31764;SDS011;18338;53.240;8.798;2022-09-09T08:05:03;24.10;;;15.75;;
31764;SDS011;18338;53.240;8.798;2022-09-09T08:07:34;20.13;;;14.45;;
31764;SDS011;18338;53.240;8.798;2022-09-09T08:10:04;18.35;;;12.50;;
31764;SDS011;18338;53.240;8.798;2022-09-09T08:12:32;19.08;;;12.27;;
31764;SDS011;18338;53.240;8.798;2022-09-09T08:15:02;16.50;;;10.75;;
31764;SDS011;18338;53.240;8.798;2022-09-09T08:17:29;16.90;;;10.93;;
31764;SDS011;18338;53.240;8.798;2022-09-09T08:19:55;14.93;;;10.70;;
31764;SDS011;18338;53.240;8.798;2022-09-09T08:22:22;12.07;;;10.07;;
31764;SDS011;18338;53.240;8.798;2022-09-09T08:24:50;12.82;;;10.15;;
31764;SDS011;18338;53.240;8.798;2022-09-09T08:27:18;16.70;;;10.75;;
31764;SDS011;18338;53.240;8.798;2022-09-09T08:29:45;14.15;;;10.15;;
31764;SDS011;18338;53.240;8.798;2022-09-09T08:32:12;11.65;;;8.10;;
31764;SDS011;18338;53.240;8.798;2022-09-09T08:34:39;5.28;;;4.78;;
31764;SDS011;18338;53.240;8.798;2022-09-09T08:37:11;8.93;;;6.45;;
31764;SDS011;18338;53.240;8.798;2022-09-09T08:39:41;4.95;;;4.03;;
31764;SDS011;18338;53.240;8.798;2022-09-09T08:42:28;5.45;;;3.20;;
31764;SDS011;18338;53.240;8.798;2022-09-09T08:45:10;2.88;;;2.33;;
31764;SDS011;18338;53.240;8.798;2022-09-09T08:50:50;2.83;;;2.20;;
31764;SDS011;18338;53.240;8.798;2022-09-09T08:53:36;3.88;;;2.45;;
31764;SDS011;18338;53.240;8.798;2022-09-09T08:56:12;3.80;;;2.50;;
31764;SDS011;18338;53.240;8.798;2022-09-09T08:58:52;4.38;;;2.08;;
31764;SDS011;18338;53.240;8.798;2022-09-09T09:01:55;4.30;;;2.47;;
31764;SDS011;18338;53.240;8.798;2022-09-09T09:10:01;5.53;;;2.92;;
31764;SDS011;18338;53.240;8.798;2022-09-09T09:12:29;4.18;;;2.40;;
31764;SDS011;18338;53.240;8.798;2022-09-09T09:15:09;2.95;;;2.28;;
31764;SDS011;18338;53.240;8.798;2022-09-09T09:17:43;3.22;;;2.40;;
31764;SDS011;18338;53.240;8.798;2022-09-09T09:20:13;5.88;;;2.05;;
31764;SDS011;18338;53.240;8.798;2022-09-09T09:22:49;2.78;;;1.60;;
31764;SDS011;18338;53.240;8.798;2022-09-09T09:25:22;2.97;;;1.83;;
31764;SDS011;18338;53.240;8.798;2022-09-09T09:27:58;2.38;;;1.45;;
31764;SDS011;18338;53.240;8.798;2022-09-09T09:30:41;2.75;;;1.15;;
31764;SDS011;18338;53.240;8.798;2022-09-09T09:33:15;1.40;;;1.02;;
31764;SDS011;18338;53.240;8.798;2022-09-09T09:35:49;2.42;;;1.58;;
31764;SDS011;18338;53.240;8.798;2022-09-09T09:38:21;4.55;;;1.90;;
31764;SDS011;18338;53.240;8.798;2022-09-09T09:41:09;2.70;;;1.80;;
31764;SDS011;18338;53.240;8.798;2022-09-09T09:43:37;2.90;;;1.73;;
31764;SDS011;18338;53.240;8.798;2022-09-09T09:46:17;2.38;;;1.92;;
31764;SDS011;18338;53.240;8.798;2022-09-09T09:48:56;4.72;;;2.20;;
31764;SDS011;18338;53.240;8.798;2022-09-09T09:51:32;4.38;;;2.30;;
31764;SDS011;18338;53.240;8.798;2022-09-09T09:54:07;2.28;;;2.00;;
31764;SDS011;18338;53.240;8.798;2022-09-09T09:57:09;4.30;;;2.10;;
31764;SDS011;18338;53.240;8.798;2022-09-09T09:59:37;5.70;;;1.98;;
31764;SDS011;18338;53.240;8.798;2022-09-09T10:02:18;2.72;;;2.00;;
31764;SDS011;18338;53.240;8.798;2022-09-09T10:04:45;9.63;;;2.10;;
31764;SDS011;18338;53.240;8.798;2022-09-09T10:07:19;4.82;;;2.00;;
31764;SDS011;18338;53.240;8.798;2022-09-09T10:09:53;3.80;;;1.83;;
31764;SDS011;18338;53.240;8.798;2022-09-09T10:12:26;3.15;;;1.65;;
31764;SDS011;18338;53.240;8.798;2022-09-09T10:23:08;1.50;;;1.25;;
31764;SDS011;18338;53.240;8.798;2022-09-09T10:28:43;1.50;;;1.23;;
31764;SDS011;18338;53.240;8.798;2022-09-09T10:31:36;4.82;;;1.70;;
31764;SDS011;18338;53.240;8.798;2022-09-09T10:37:22;3.00;;;1.30;;
31764;SDS011;18338;53.240;8.798;2022-09-09T10:40:21;3.70;;;1.23;;
31764;SDS011;18338;53.240;8.798;2022-09-09T10:54:14;3.65;;;0.90;;
31764;SDS011;18338;53.240;8.798;2022-09-09T10:56:44;2.60;;;0.85;;
31764;SDS011;18338;53.240;8.798;2022-09-09T10:59:17;5.38;;;1.33;;
31764;SDS011;18338;53.240;8.798;2022-09-09T11:01:54;3.60;;;1.08;;
31764;SDS011;18338;53.240;8.798;2022-09-09T11:07:44;2.65;;;1.23;;
31764;SDS011;18338;53.240;8.798;2022-09-09T11:16:21;4.60;;;1.70;;
31764;SDS011;18338;53.240;8.798;2022-09-09T11:18:49;2.47;;;1.10;;
31764;SDS011;18338;53.240;8.798;2022-09-09T11:21:18;2.78;;;1.30;;
31764;SDS011;18338;53.240;8.798;2022-09-09T11:23:53;4.80;;;1.55;;
31764;SDS011;18338;53.240;8.798;2022-09-09T11:26:32;3.63;;;1.23;;
31764;SDS011;18338;53.240;8.798;2022-09-09T11:29:13;3.45;;;1.30;;
31764;SDS011;18338;53.240;8.798;2022-09-09T11:32:04;4.72;;;1.40;;
31764;SDS011;18338;53.240;8.798;2022-09-09T11:34:49;1.98;;;1.08;;
31764;SDS011;18338;53.240;8.798;2022-09-09T11:40:09;2.42;;;1.00;;
31764;SDS011;18338;53.240;8.798;2022-09-09T11:42:40;2.95;;;1.38;;
31764;SDS011;18338;53.240;8.798;2022-09-09T11:45:09;2.92;;;1.30;;
31764;SDS011;18338;53.240;8.798;2022-09-09T11:47:57;2.58;;;1.50;;
31764;SDS011;18338;53.240;8.798;2022-09-09T11:53:03;2.90;;;1.15;;
31764;SDS011;18338;53.240;8.798;2022-09-09T11:55:39;2.30;;;0.90;;
31764;SDS011;18338;53.240;8.798;2022-09-09T12:00:37;4.63;;;1.33;;
31764;SDS011;18338;53.240;8.798;2022-09-09T12:03:31;2.72;;;0.90;;
31764;SDS011;18338;53.240;8.798;2022-09-09T12:06:09;2.47;;;1.20;;
31764;SDS011;18338;53.240;8.798;2022-09-09T12:08:41;2.47;;;1.02;;
31764;SDS011;18338;53.240;8.798;2022-09-09T12:11:11;4.88;;;1.35;;
31764;SDS011;18338;53.240;8.798;2022-09-09T12:13:38;2.80;;;1.23;;
31764;SDS011;18338;53.240;8.798;2022-09-09T12:16:04;4.20;;;1.40;;
31764;SDS011;18338;53.240;8.798;2022-09-09T12:21:21;4.88;;;1.40;;
31764;SDS011;18338;53.240;8.798;2022-09-09T12:24:09;3.08;;;1.20;;
31764;SDS011;18338;53.240;8.798;2022-09-09T12:26:43;4.60;;;1.80;;
31764;SDS011;18338;53.240;8.798;2022-09-09T12:34:59;5.50;;;1.67;;
31764;SDS011;18338;53.240;8.798;2022-09-09T12:37:42;2.92;;;1.33;;
31764;SDS011;18338;53.240;8.798;2022-09-09T12:40:19;3.45;;;1.90;;
31764;SDS011;18338;53.240;8.798;2022-09-09T12:42:50;6.13;;;2.42;;
31764;SDS011;18338;53.240;8.798;2022-09-09T12:45:22;5.10;;;2.30;;
31764;SDS011;18338;53.240;8.798;2022-09-09T12:50:24;6.82;;;2.45;;
31764;SDS011;18338;53.240;8.798;2022-09-09T12:52:54;4.57;;;2.50;;
31764;SDS011;18338;53.240;8.798;2022-09-09T12:55:29;4.60;;;2.50;;
31764;SDS011;18338;53.240;8.798;2022-09-09T12:58:00;4.07;;;1.98;;
31764;SDS011;18338;53.240;8.798;2022-09-09T13:00:30;4.05;;;2.08;;
31764;SDS011;18338;53.240;8.798;2022-09-09T13:02:59;4.85;;;1.90;;
31764;SDS011;18338;53.240;8.798;2022-09-09T13:05:34;3.08;;;1.80;;
31764;SDS011;18338;53.240;8.798;2022-09-09T13:10:35;4.80;;;2.30;;
31764;SDS011;18338;53.240;8.798;2022-09-09T13:13:21;3.25;;;2.13;;
31764;SDS011;18338;53.240;8.798;2022-09-09T13:15:51;3.47;;;2.13;;
31764;SDS011;18338;53.240;8.798;2022-09-09T13:18:21;3.65;;;2.45;;
31764;SDS011;18338;53.240;8.798;2022-09-09T13:20:49;7.50;;;3.33;;
31764;SDS011;18338;53.240;8.798;2022-09-09T13:23:18;4.75;;;2.42;;
31764;SDS011;18338;53.240;8.798;2022-09-09T13:25:54;3.47;;;2.60;;
31764;SDS011;18338;53.240;8.798;2022-09-09T13:28:26;7.88;;;2.90;;
31764;SDS011;18338;53.240;8.798;2022-09-09T13:33:33;2.45;;;1.70;;
31764;SDS011;18338;53.240;8.798;2022-09-09T13:36:07;3.05;;;1.60;;
31764;SDS011;18338;53.240;8.798;2022-09-09T13:38:37;2.28;;;1.20;;
31764;SDS011;18338;53.240;8.798;2022-09-09T13:41:08;4.95;;;1.20;;
31764;SDS011;18338;53.240;8.798;2022-09-09T13:43:36;2.53;;;1.08;;
31764;SDS011;18338;53.240;8.798;2022-09-09T13:49:00;2.63;;;1.10;;
31764;SDS011;18338;53.240;8.798;2022-09-09T13:51:43;2.25;;;1.30;;
31764;SDS011;18338;53.240;8.798;2022-09-09T13:54:19;4.95;;;1.65;;
31764;SDS011;18338;53.240;8.798;2022-09-09T13:56:46;2.17;;;1.13;;
31764;SDS011;18338;53.240;8.798;2022-09-09T13:59:15;2.35;;;1.10;;
31764;SDS011;18338;53.240;8.798;2022-09-09T14:01:42;2.00;;;0.82;;
31764;SDS011;18338;53.240;8.798;2022-09-09T14:04:10;3.20;;;0.98;;
31764;SDS011;18338;53.240;8.798;2022-09-09T14:06:38;4.72;;;1.30;;
31764;SDS011;18338;53.240;8.798;2022-09-09T14:09:06;3.30;;;1.10;;
31764;SDS011;18338;53.240;8.798;2022-09-09T14:11:36;1.90;;;1.35;;
31764;SDS011;18338;53.240;8.798;2022-09-09T14:14:03;2.63;;;1.10;;
31764;SDS011;18338;53.240;8.798;2022-09-09T14:16:31;4.13;;;1.55;;
31764;SDS011;18338;53.240;8.798;2022-09-09T14:18:58;2.92;;;1.92;;
31764;SDS011;18338;53.240;8.798;2022-09-09T14:21:25;4.07;;;1.60;;
31764;SDS011;18338;53.240;8.798;2022-09-09T14:23:53;4.57;;;2.17;;
31764;SDS011;18338;53.240;8.798;2022-09-09T14:26:21;3.72;;;2.08;;
31764;SDS011;18338;53.240;8.798;2022-09-09T14:28:50;3.42;;;2.40;;
31764;SDS011;18338;53.240;8.798;2022-09-09T14:31:21;4.10;;;2.50;;
31764;SDS011;18338;53.240;8.798;2022-09-09T14:33:51;5.70;;;2.67;;
31764;SDS011;18338;53.240;8.798;2022-09-09T14:36:19;3.03;;;2.67;;
31764;SDS011;18338;53.240;8.798;2022-09-09T14:38:46;3.53;;;2.90;;
31764;SDS011;18338;53.240;8.798;2022-09-09T14:41:14;3.88;;;2.85;;
31764;SDS011;18338;53.240;8.798;2022-09-09T14:43:45;4.38;;;2.67;;
31764;SDS011;18338;53.240;8.798;2022-09-09T14:46:14;3.03;;;2.70;;
31764;SDS011;18338;53.240;8.798;2022-09-09T14:48:42;6.00;;;2.85;;
31764;SDS011;18338;53.240;8.798;2022-09-09T14:51:11;5.10;;;3.10;;
31764;SDS011;18338;53.240;8.798;2022-09-09T14:53:40;4.00;;;3.13;;
31764;SDS011;18338;53.240;8.798;2022-09-09T14:56:11;5.00;;;3.70;;
31764;SDS011;18338;53.240;8.798;2022-09-09T14:58:40;6.05;;;3.22;;
31764;SDS011;18338;53.240;8.798;2022-09-09T15:01:08;4.68;;;3.67;;
31764;SDS011;18338;53.240;8.798;2022-09-09T15:03:40;6.80;;;4.43;;
31764;SDS011;18338;53.240;8.798;2022-09-09T15:06:13;6.68;;;4.63;;
31764;SDS011;18338;53.240;8.798;2022-09-09T15:08:41;8.18;;;5.00;;
31764;SDS011;18338;53.240;8.798;2022-09-09T15:11:09;8.65;;;5.30;;
31764;SDS011;18338;53.240;8.798;2022-09-09T15:13:38;8.05;;;5.15;;
31764;SDS011;18338;53.240;8.798;2022-09-09T15:16:13;6.97;;;5.15;;
31764;SDS011;18338;53.240;8.798;2022-09-09T15:18:41;5.95;;;5.35;;
31764;SDS011;18338;53.240;8.798;2022-09-09T15:21:12;7.43;;;5.25;;
31764;SDS011;18338;53.240;8.798;2022-09-09T15:23:41;6.57;;;5.53;;
31764;SDS011;18338;53.240;8.798;2022-09-09T15:26:09;8.40;;;5.55;;
31764;SDS011;18338;53.240;8.798;2022-09-09T15:28:37;9.45;;;6.10;;
31764;SDS011;18338;53.240;8.798;2022-09-09T15:31:09;7.75;;;5.78;;
31764;SDS011;18338;53.240;8.798;2022-09-09T15:33:40;7.18;;;5.55;;
31764;SDS011;18338;53.240;8.798;2022-09-09T15:36:18;5.88;;;5.20;;
31764;SDS011;18338;53.240;8.798;2022-09-09T15:38:51;6.30;;;5.68;;
31764;SDS011;18338;53.240;8.798;2022-09-09T15:41:19;5.85;;;5.25;;
31764;SDS011;18338;53.240;8.798;2022-09-09T15:43:51;7.65;;;5.63;;
31764;SDS011;18338;53.240;8.798;2022-09-09T15:46:23;7.78;;;5.78;;
31764;SDS011;18338;53.240;8.798;2022-09-09T15:49:07;5.97;;;5.43;;
31764;SDS011;18338;53.240;8.798;2022-09-09T15:51:39;7.55;;;5.40;;
31764;SDS011;18338;53.240;8.798;2022-09-09T15:54:10;8.07;;;5.78;;
31764;SDS011;18338;53.240;8.798;2022-09-09T15:56:38;5.68;;;5.18;;
31764;SDS011;18338;53.240;8.798;2022-09-09T15:59:06;5.95;;;4.57;;
31764;SDS011;18338;53.240;8.798;2022-09-09T16:01:34;5.80;;;5.03;;
31764;SDS011;18338;53.240;8.798;2022-09-09T16:04:02;7.50;;;5.43;;
31764;SDS011;18338;53.240;8.798;2022-09-09T16:06:31;7.47;;;4.60;;
31764;SDS011;18338;53.240;8.798;2022-09-09T16:08:59;5.75;;;5.20;;
31764;SDS011;18338;53.240;8.798;2022-09-09T16:14:02;5.70;;;4.50;;
31764;SDS011;18338;53.240;8.798;2022-09-09T16:16:33;4.97;;;4.57;;
31764;SDS011;18338;53.240;8.798;2022-09-09T16:19:13;5.47;;;4.97;;
31764;SDS011;18338;53.240;8.798;2022-09-09T16:21:48;5.18;;;4.63;;
31764;SDS011;18338;53.240;8.798;2022-09-09T16:24:24;4.40;;;4.00;;
31764;SDS011;18338;53.240;8.798;2022-09-09T16:26:59;5.00;;;3.53;;
31764;SDS011;18338;53.240;8.798;2022-09-09T16:29:26;5.65;;;4.25;;
31764;SDS011;18338;53.240;8.798;2022-09-09T16:31:53;6.80;;;4.78;;
31764;SDS011;18338;53.240;8.798;2022-09-09T16:34:25;4.60;;;3.85;;
31764;SDS011;18338;53.240;8.798;2022-09-09T16:36:51;4.85;;;3.80;;
31764;SDS011;18338;53.240;8.798;2022-09-09T16:39:19;5.18;;;3.72;;
31764;SDS011;18338;53.240;8.798;2022-09-09T16:41:47;5.50;;;3.50;;
31764;SDS011;18338;53.240;8.798;2022-09-09T16:44:15;3.53;;;3.08;;
31764;SDS011;18338;53.240;8.798;2022-09-09T16:46:44;5.32;;;3.35;;
31764;SDS011;18338;53.240;8.798;2022-09-09T16:49:14;3.75;;;3.45;;
31764;SDS011;18338;53.240;8.798;2022-09-09T16:51:43;5.05;;;3.30;;
31764;SDS011;18338;53.240;8.798;2022-09-09T16:54:13;3.30;;;2.72;;
31764;SDS011;18338;53.240;8.798;2022-09-09T16:56:43;4.35;;;3.83;;
31764;SDS011;18338;53.240;8.798;2022-09-09T16:59:15;4.18;;;3.58;;
31764;SDS011;18338;53.240;8.798;2022-09-09T17:01:44;6.25;;;3.97;;
31764;SDS011;18338;53.240;8.798;2022-09-09T17:04:14;5.18;;;4.63;;
31764;SDS011;18338;53.240;8.798;2022-09-09T17:06:50;5.13;;;4.63;;